Time;durP1;ratioP1;P1;durP2;ratioP2;P2;SDS_P1;SDS_P2;PMS_P1;PMS_P2;Temp;Humidity;BMP_temperature;BMP_pressure;BME280_temperature;BME280_humidity;BME280_pressure;Samples;Min_cycle;Max_cycle;Signal;HPM_P1;HPM_P2
2022/02/13 00:01:45;;;;;;;21.75;10.10;;;;;;;-0.76;65.43;103342.40;1708882;83;25495;-61
2022/02/13 00:04:14;;;;;;;22.75;11.73;;;;;;;-0.80;65.51;103349.45;1698452;84;25623;-61
2022/02/13 00:06:40;;;;;;;20.48;10.75;;;;;;;-0.82;65.42;103352.10;1695193;84;25790;-61
2022/02/13 00:09:07;;;;;;;21.37;11.00;;;;;;;-0.85;65.55;103348.13;1695546;84;25843;-61
2022/02/13 00:11:34;;;;;;;21.23;10.45;;;;;;;-0.89;65.60;103350.31;1695557;83;27421;-60
2022/02/13 00:14:01;;;;;;;19.07;9.95;;;;;;;-0.98;65.28;103351.61;1695461;84;25876;-61
2022/02/13 00:16:28;;;;;;;24.63;10.85;;;;;;;-1.03;65.29;103350.29;1707469;84;25646;-61
2022/02/13 00:18:55;;;;;;;25.15;10.82;;;;;;;-1.06;65.44;103354.69;1704883;84;25791;-61
2022/02/13 00:21:21;;;;;;;19.77;10.30;;;;;;;-1.08;65.67;103354.70;1667688;86;25506;-61
2022/02/13 00:23:48;;;;;;;21.05;11.05;;;;;;;-1.06;65.82;103351.63;1687167;84;27502;-61
2022/02/13 00:26:15;;;;;;;21.75;10.43;;;;;;;-1.03;65.82;103352.06;1680597;83;25668;-61
2022/02/13 00:28:42;;;;;;;22.32;10.78;;;;;;;-1.04;65.83;103347.66;1680459;85;25512;-60
2022/02/13 00:31:09;;;;;;;31.40;10.20;;;;;;;-1.08;65.60;103345.45;1680659;84;25819;-60
2022/02/13 00:33:36;;;;;;;22.67;10.03;;;;;;;-1.13;65.71;103337.97;1691799;84;25445;-61
2022/02/13 00:36:05;;;;;;;23.07;10.32;;;;;;;-1.16;65.73;103336.17;1709134;83;27464;-61
2022/02/13 00:38:32;;;;;;;20.48;10.08;;;;;;;-1.17;65.69;103334.44;1708877;83;25706;-61
2022/02/13 00:40:59;;;;;;;15.68;9.38;;;;;;;-1.21;65.50;103334.44;1708909;84;25710;-62
2022/02/13 00:43:26;;;;;;;28.02;10.95;;;;;;;-1.28;65.61;103329.56;1708881;83;26528;-62
2022/02/13 00:45:52;;;;;;;23.45;10.35;;;;;;;-1.35;65.71;103323.83;1708995;83;25731;-62
2022/02/13 00:48:19;;;;;;;19.92;10.48;;;;;;;-1.42;65.74;103325.56;1708918;83;27482;-62
2022/02/13 00:50:46;;;;;;;26.07;10.63;;;;;;;-1.46;65.83;103319.82;1708785;83;25747;-62
2022/02/13 00:53:12;;;;;;;17.48;9.90;;;;;;;-1.48;65.94;103322.92;1708930;83;25714;-62
2022/02/13 00:55:39;;;;;;;18.27;9.95;;;;;;;-1.53;66.02;103314.09;1709178;83;25820;-62
2022/02/13 00:58:06;;;;;;;19.92;10.75;;;;;;;-1.57;66.07;103311.42;1698311;84;26348;-62
2022/02/13 01:00:33;;;;;;;22.70;10.85;;;;;;;-1.55;66.08;103309.23;1695359;84;28229;-62
2022/02/13 01:02:59;;;;;;;23.85;10.75;;;;;;;-1.54;66.14;103309.68;1695157;84;25524;-60
2022/02/13 01:05:27;;;;;;;19.40;9.95;;;;;;;-1.60;66.09;103315.81;1695053;84;25498;-60
2022/02/13 01:07:53;;;;;;;25.80;11.45;;;;;;;-1.64;66.29;103311.42;1696303;84;25835;-60
2022/02/13 01:10:20;;;;;;;16.52;9.68;;;;;;;-1.72;65.88;103306.55;1696549;84;25849;-60
2022/02/13 01:12:48;;;;;;;20.23;9.53;;;;;;;-1.75;66.27;103306.11;1696434;84;28325;-60
2022/02/13 01:15:16;;;;;;;24.47;10.48;;;;;;;-1.74;66.44;103302.56;1695939;84;25842;-60
2022/02/13 01:17:43;;;;;;;26.50;9.63;;;;;;;-1.77;66.28;103300.80;1695205;83;25748;-60
2022/02/13 01:20:12;;;;;;;15.53;9.25;;;;;;;-1.83;65.98;103299.47;1695039;83;26178;-60
2022/02/13 01:22:39;;;;;;;17.75;10.05;;;;;;;-1.83;66.37;103301.21;1695476;84;25950;-60
2022/02/13 01:25:07;;;;;;;16.93;9.35;;;;;;;-1.87;66.23;103295.05;1689730;83;27367;-60
2022/02/13 01:27:34;;;;;;;16.73;9.78;;;;;;;-1.89;66.35;103295.05;1686167;83;25671;-60
2022/02/13 01:30:01;;;;;;;16.37;9.00;;;;;;;-1.92;66.31;103301.62;1696408;84;25516;-60
2022/02/13 01:32:28;;;;;;;17.10;10.18;;;;;;;-1.94;66.68;103300.75;1695919;84;26167;-60
2022/02/13 01:34:54;;;;;;;17.80;10.30;;;;;;;-2.01;66.29;103298.06;1696342;84;25788;-60
2022/02/13 01:37:22;;;;;;;16.50;8.43;;;;;;;-2.09;66.44;103294.96;1696302;84;28168;-60
2022/02/13 01:39:49;;;;;;;14.00;8.68;;;;;;;-2.10;66.72;103296.25;1696160;84;25829;-60
2022/02/13 01:42:16;;;;;;;17.85;9.83;;;;;;;-2.12;66.75;103284.83;1696508;84;25517;-61
2022/02/13 01:44:42;;;;;;;19.52;9.25;;;;;;;-2.12;66.83;103294.94;1695715;83;25703;-62
2022/02/13 01:47:09;;;;;;;18.70;9.15;;;;;;;-2.07;66.95;103289.68;1691837;84;25777;-60
2022/02/13 01:49:36;;;;;;;15.83;9.63;;;;;;;-2.08;66.80;103291.45;1696343;83;27479;-60
2022/02/13 01:52:05;;;;;;;24.55;9.43;;;;;;;-2.14;66.92;103281.30;1696249;84;25806;-60
2022/02/13 01:54:32;;;;;;;24.12;9.65;;;;;;;-2.16;66.95;103291.85;1696241;84;25742;-60
2022/02/13 01:57:00;;;;;;;18.82;10.23;;;;;;;-2.16;66.91;103293.17;1694915;84;25779;-60
2022/02/13 01:59:27;;;;;;;15.98;9.25;;;;;;;-2.23;66.63;103290.92;1693044;84;25746;-60
2022/02/13 02:01:55;;;;;;;18.07;9.33;;;;;;;-2.22;66.84;103295.33;1698310;83;27499;-60
2022/02/13 02:04:23;;;;;;;14.65;8.75;;;;;;;-2.20;66.92;103291.37;1698284;84;25745;-60
2022/02/13 02:06:50;;;;;;;15.58;9.30;;;;;;;-2.17;67.08;103290.08;1691206;84;25744;-60
2022/02/13 02:09:17;;;;;;;15.15;8.88;;;;;;;-2.22;66.81;103290.06;1684916;85;25804;-61
2022/02/13 02:11:44;;;;;;;23.27;8.50;;;;;;;-2.22;66.92;103293.11;1685092;85;25527;-61
2022/02/13 02:14:11;;;;;;;18.92;8.93;;;;;;;-2.27;66.86;103292.22;1684479;85;29692;-60
2022/02/13 02:16:40;;;;;;;23.65;9.68;;;;;;;-2.32;66.79;103288.23;1685082;83;25892;-60
2022/02/13 02:19:09;;;;;;;14.38;8.98;;;;;;;-2.36;66.93;103295.25;1694541;83;25718;-61
2022/02/13 02:21:43;;;;;;;22.20;11.33;;;;;;;-2.44;66.98;103293.00;1698147;84;25770;-61
2022/02/13 02:24:15;;;;;;;18.40;9.07;;;;;;;-2.49;66.89;103303.06;1697812;83;25698;-60
2022/02/13 02:26:44;;;;;;;19.27;9.93;;;;;;;-2.49;66.89;103303.06;1693888;84;27520;-60
2022/02/13 02:29:10;;;;;;;20.32;9.98;;;;;;;-2.53;67.01;103299.08;1693603;84;25805;-61
2022/02/13 02:31:37;;;;;;;17.12;9.85;;;;;;;-2.52;67.16;103294.70;1687043;84;25802;-60
2022/02/13 02:34:04;;;;;;;16.37;8.78;;;;;;;-2.49;67.15;103290.75;1684750;85;26158;-60
2022/02/13 02:36:31;;;;;;;15.45;9.33;;;;;;;-2.47;67.15;103292.97;1684968;85;25774;-61
2022/02/13 02:38:57;;;;;;;16.42;8.90;;;;;;;-2.47;66.82;103292.10;1684718;83;28149;-60
2022/02/13 02:41:26;;;;;;;27.35;8.88;;;;;;;-2.48;66.77;103289.89;1684657;84;25729;-60
2022/02/13 02:43:53;;;;;;;19.52;9.30;;;;;;;-2.48;66.92;103295.16;1671640;85;25758;-60
2022/02/13 02:46:19;;;;;;;15.48;9.15;;;;;;;-2.48;66.81;103296.47;1688064;84;25829;-61
2022/02/13 02:48:46;;;;;;;20.62;9.20;;;;;;;-2.52;66.67;103296.89;1695433;84;25558;-60
2022/02/13 02:51:13;;;;;;;17.50;9.08;;;;;;;-2.59;66.59;103294.19;1694954;83;27475;-61
2022/02/13 02:53:42;;;;;;;18.30;9.48;;;;;;;-2.63;66.87;103295.92;1694987;84;25678;-60
2022/02/13 02:56:10;;;;;;;19.42;9.40;;;;;;;-2.68;66.85;103287.12;1686287;84;25740;-60
2022/02/13 02:58:39;;;;;;;14.40;9.50;;;;;;;-2.70;66.85;103284.48;1692375;83;25835;-61
2022/02/13 03:01:06;;;;;;;12.60;8.88;;;;;;;-2.71;66.86;103290.62;1692601;83;25529;-61
2022/02/13 03:03:33;;;;;;;19.15;10.00;;;;;;;-2.73;66.94;103291.45;1692436;83;27485;-60
2022/02/13 03:06:01;;;;;;;17.12;9.23;;;;;;;-2.78;66.70;103286.59;1692988;84;25744;-60
2022/02/13 03:08:28;;;;;;;16.45;9.33;;;;;;;-2.80;66.79;103289.23;1698124;84;25768;-60
2022/02/13 03:10:55;;;;;;;18.98;10.30;;;;;;;-2.81;66.75;103285.24;1698145;84;26135;-61
2022/02/13 03:13:23;;;;;;;17.87;8.90;;;;;;;-2.84;66.78;103290.06;1676388;84;25516;-60
2022/02/13 03:15:51;;;;;;;15.10;8.50;;;;;;;-2.88;66.65;103293.55;1688368;84;27485;-61
2022/02/13 03:18:18;;;;;;;21.95;10.05;;;;;;;-2.89;66.81;103287.83;1692033;84;25817;-61
2022/02/13 03:20:47;;;;;;;22.62;9.50;;;;;;;-2.93;66.71;103281.66;1692686;84;25780;-61
2022/02/13 03:23:16;;;;;;;18.35;9.28;;;;;;;-2.93;66.88;103285.61;1692431;84;26420;-60
2022/02/13 03:25:44;;;;;;;19.20;8.80;;;;;;;-2.90;67.06;103282.11;1686842;83;25850;-61
2022/02/13 03:28:11;;;;;;;15.90;8.03;;;;;;;-2.91;66.87;103286.93;1684648;84;27515;-61
2022/02/13 03:30:38;;;;;;;18.52;9.15;;;;;;;-2.92;67.12;103290.43;1684887;84;25755;-61
2022/02/13 03:33:05;;;;;;;13.50;8.60;;;;;;;-2.95;66.97;103279.44;1688396;84;25738;-60
2022/02/13 03:35:32;;;;;;;18.37;9.78;;;;;;;-3.01;66.75;103284.67;1698544;84;26139;-60
2022/02/13 03:37:59;;;;;;;15.68;8.38;;;;;;;-3.03;67.01;103282.00;1698254;84;25838;-61
2022/02/13 03:40:26;;;;;;;14.75;8.98;;;;;;;-3.06;66.78;103281.99;1698197;84;28268;-60
2022/02/13 03:42:52;;;;;;;16.40;8.43;;;;;;;-3.10;66.82;103283.27;1695958;83;25681;-60
2022/02/13 03:45:19;;;;;;;17.20;9.53;;;;;;;-3.12;66.86;103282.36;1684802;85;25782;-60
2022/02/13 03:47:46;;;;;;;20.05;9.15;;;;;;;-3.17;66.80;103286.27;1684961;83;26503;-60
2022/02/13 03:50:15;;;;;;;18.80;9.98;;;;;;;-3.22;66.92;103283.59;1685911;84;25517;-61
2022/02/13 03:52:43;;;;;;;16.37;9.53;;;;;;;-3.24;66.81;103287.08;1684035;85;27496;-60
2022/02/13 03:55:16;;;;;;;19.87;9.93;;;;;;;-3.25;66.83;103282.23;1695515;84;25760;-60
2022/02/13 03:57:44;;;;;;;15.10;9.40;;;;;;;-3.23;66.89;103280.51;1700305;83;25748;-61
2022/02/13 04:00:18;;;;;;;17.15;9.03;;;;;;;-3.21;66.85;103275.24;1708724;83;25895;-62
2022/02/13 04:02:42;;;;;;;15.68;8.80;;;;;;;-3.22;66.79;103274.37;1707587;83;26465;-62
2022/02/13 04:05:10;;;;;;;18.73;9.00;;;;;;;-3.25;66.77;103272.16;1700296;84;27473;-61
2022/02/13 04:07:44;;;;;;;16.65;8.55;;;;;;;-3.30;66.62;103266.84;1698366;84;25829;-61
2022/02/13 04:10:13;;;;;;;;;;;;;;;-3.29;66.79;103268.61;1700647;84;25738;-61
2022/02/13 04:12:41;;;;;;;15.50;9.65;;;;;;;-3.30;66.99;103263.77;1698644;84;26551;-61
2022/02/13 04:15:10;;;;;;;14.25;9.05;;;;;;;-3.30;66.96;103262.44;1698497;84;25658;-62
2022/02/13 04:17:37;;;;;;;15.63;10.03;;;;;;;-3.32;66.81;103265.94;1708105;84;28168;-61
2022/02/13 04:20:06;;;;;;;16.30;8.58;;;;;;;-3.40;66.48;103259.72;1708800;83;25513;-61
2022/02/13 04:22:33;;;;;;;15.72;10.05;;;;;;;-3.48;66.51;103255.27;1709095;83;25618;-61
2022/02/13 04:25:00;;;;;;;19.62;9.60;;;;;;;-3.51;66.64;103261.80;1711041;82;26681;-62
2022/02/13 04:27:27;;;;;;;14.23;8.35;;;;;;;-3.54;66.69;103257.81;1715531;83;25721;-62
2022/02/13 04:29:54;;;;;;;25.90;9.65;;;;;;;-3.51;66.91;103259.17;1696849;83;27460;-62
2022/02/13 04:32:21;;;;;;;18.15;8.98;;;;;;;-3.53;66.83;103257.39;1695343;84;25728;-61
2022/02/13 04:34:48;;;;;;;16.82;9.60;;;;;;;-3.51;66.80;103255.22;1695549;84;25678;-62
2022/02/13 04:37:15;;;;;;;13.75;8.55;;;;;;;-3.54;66.75;103252.99;1702754;83;26393;-62
2022/02/13 04:39:43;;;;;;;18.35;9.33;;;;;;;-3.57;66.76;103251.22;1708989;83;25727;-61
2022/02/13 04:42:12;;;;;;;22.22;9.85;;;;;;;-3.59;66.74;103245.05;1708864;83;27506;-61
2022/02/13 04:44:40;;;;;;;15.93;9.35;;;;;;;-3.60;66.72;103239.78;1708738;83;25725;-62
2022/02/13 04:47:08;;;;;;;18.15;8.85;;;;;;;-3.60;66.81;103253.81;1705139;83;25773;-61
2022/02/13 04:49:35;;;;;;;19.52;9.25;;;;;;;-3.63;66.71;103249.84;1696763;83;25774;-61
2022/02/13 04:52:04;;;;;;;22.67;9.73;;;;;;;-3.67;66.71;103250.67;1695512;84;25928;-61
2022/02/13 04:54:31;;;;;;;41.08;10.50;;;;;;;-3.66;66.90;103252.44;1695747;83;27428;-62
2022/02/13 04:57:01;;;;;;;22.22;9.38;;;;;;;-3.67;66.82;103250.22;1695489;84;25633;-62
2022/02/13 04:59:33;;;;;;;21.68;8.78;;;;;;;-3.68;66.73;103256.38;1694624;83;25547;-61
2022/02/13 05:01:56;;;;;;;20.35;9.93;;;;;;;-3.68;66.87;103253.75;1687650;84;25823;-61
2022/02/13 05:04:23;;;;;;;18.02;9.78;;;;;;;-3.71;66.64;103255.02;1684733;85;25675;-62
2022/02/13 05:06:49;;;;;;;19.87;10.13;;;;;;;-3.75;66.66;103251.88;1684721;85;27459;-61
2022/02/13 05:09:17;;;;;;;14.10;8.93;;;;;;;-3.82;66.67;103248.33;1684843;85;25787;-62
2022/02/13 05:11:43;;;;;;;24.50;11.15;;;;;;;-3.84;66.83;103251.36;1695118;84;25709;-62
2022/02/13 05:14:10;;;;;;;64.90;22.35;;;;;;;-3.86;66.68;103259.66;1698055;84;25853;-61
2022/02/13 05:16:37;;;;;;;31.27;12.40;;;;;;;-3.86;66.79;103246.52;1698124;84;25760;-62
2022/02/13 05:19:04;;;;;;;22.27;11.68;;;;;;;-3.85;66.79;103249.59;1694005;84;27502;-62
2022/02/13 05:21:31;;;;;;;21.82;10.85;;;;;;;-3.82;66.99;103247.02;1684957;84;25754;-61
2022/02/13 05:23:58;;;;;;;19.48;10.28;;;;;;;-3.82;66.88;103247.42;1684748;85;25670;-61
2022/02/13 05:26:25;;;;;;;20.32;10.28;;;;;;;-3.84;66.85;103242.58;1685070;85;26171;-61
2022/02/13 05:28:54;;;;;;;24.70;12.30;;;;;;;-3.87;66.88;103242.56;1687804;84;25749;-62
2022/02/13 05:31:21;;;;;;;19.25;9.13;;;;;;;-3.91;66.75;103240.33;1698335;84;27492;-61
2022/02/13 05:33:48;;;;;;;17.30;9.85;;;;;;;-3.89;66.81;103241.20;1698205;84;25734;-61
2022/02/13 05:36:15;;;;;;;19.87;9.65;;;;;;;-3.84;66.81;103239.95;1698341;83;25791;-61
2022/02/13 05:38:42;;;;;;;15.38;9.53;;;;;;;-3.85;66.60;103239.08;1693357;84;26515;-61
2022/02/13 05:41:08;;;;;;;25.02;10.08;;;;;;;-3.86;66.75;103248.27;1692432;84;25473;-62
2022/02/13 05:43:35;;;;;;;21.85;10.53;;;;;;;-3.93;66.59;103242.92;1692524;84;27475;-61
2022/02/13 05:46:02;;;;;;;22.13;11.70;;;;;;;-3.93;66.72;103251.25;1702458;83;25867;-61
2022/02/13 05:48:31;;;;;;;32.65;15.75;;;;;;;-3.95;66.64;103244.67;1696694;83;25781;-61
2022/02/13 05:50:58;;;;;;;23.73;11.63;;;;;;;-3.95;66.89;103240.73;1692441;84;26602;-61
2022/02/13 05:53:25;;;;;;;30.82;12.68;;;;;;;-3.93;67.00;103238.98;1692421;84;25786;-62
2022/02/13 05:55:52;;;;;;;20.40;10.98;;;;;;;-3.95;67.00;103239.83;1692683;84;27458;-62
2022/02/13 05:58:19;;;;;;;21.30;10.43;;;;;;;-3.97;66.67;103239.82;1692242;84;25879;-61
2022/02/13 06:00:46;;;;;;;17.62;10.10;;;;;;;-3.88;66.94;103246.05;1697832;84;25543;-61
2022/02/13 06:03:13;;;;;;;18.15;10.40;;;;;;;-3.85;66.86;103242.12;1698074;84;25796;-61
2022/02/13 06:05:40;;;;;;;18.15;9.55;;;;;;;-3.83;67.03;103230.78;1698268;84;25511;-62
2022/02/13 06:08:07;;;;;;;15.85;10.58;;;;;;;-3.79;67.11;103231.24;1698230;83;27661;-62
2022/02/13 06:10:35;;;;;;;19.70;11.57;;;;;;;-3.73;67.13;103230.44;1698050;83;25787;-61
2022/02/13 06:13:01;;;;;;;19.15;10.45;;;;;;;-3.64;67.33;103234.92;1692736;84;25737;-61
2022/02/13 06:15:28;;;;;;;18.30;11.35;;;;;;;-3.48;67.49;103231.99;1692435;84;25794;-62
2022/02/13 06:17:55;;;;;;;20.85;10.82;;;;;;;-3.35;67.51;103227.73;1692732;84;25876;-61
2022/02/13 06:20:22;;;;;;;29.98;11.43;;;;;;;-3.17;67.46;103225.70;1693754;84;27481;-61
2022/02/13 06:22:49;;;;;;;21.45;12.03;;;;;;;-3.00;67.28;103228.05;1698444;84;25776;-62
2022/02/13 06:25:15;;;;;;;27.00;13.58;;;;;;;-2.89;67.17;103233.38;1690196;83;25902;-62
2022/02/13 06:27:42;;;;;;;22.82;13.70;;;;;;;-2.78;67.08;103225.55;1684942;83;25793;-61
2022/02/13 06:30:11;;;;;;;34.53;16.62;;;;;;;-2.67;66.98;103222.55;1686049;84;25748;-62
2022/02/13 06:32:38;;;;;;;32.55;16.17;;;;;;;-2.60;66.89;103220.84;1698376;84;28290;-61
2022/02/13 06:35:06;;;;;;;30.77;15.72;;;;;;;-2.55;66.57;103218.23;1697937;83;25852;-62
2022/02/13 06:37:34;;;;;;;32.15;15.70;;;;;;;-2.51;66.51;103216.08;1698422;84;25990;-61
2022/02/13 06:40:00;;;;;;;33.28;16.30;;;;;;;-2.45;66.68;103213.47;1688574;84;25778;-61
2022/02/13 06:42:27;;;;;;;27.20;15.38;;;;;;;-2.45;66.42;103210.83;1685048;85;25820;-61
2022/02/13 06:44:54;;;;;;;25.72;14.53;;;;;;;-2.46;66.59;103209.48;1684796;83;27486;-61
2022/02/13 06:47:21;;;;;;;27.27;14.75;;;;;;;-2.41;66.76;103202.50;1684914;84;25809;-60
2022/02/13 06:49:48;;;;;;;32.30;13.75;;;;;;;-2.32;67.00;103203.86;1693048;84;25686;-61
2022/02/13 06:52:15;;;;;;;23.22;13.50;;;;;;;-2.19;67.26;103203.48;1698186;83;25803;-61
2022/02/13 06:54:42;;;;;;;24.43;13.98;;;;;;;-2.09;67.23;103204.38;1698506;84;25789;-60
2022/02/13 06:57:09;;;;;;;21.52;11.35;;;;;;;-2.01;67.66;103200.47;1698060;83;27506;-62
2022/02/13 06:59:37;;;;;;;22.55;12.18;;;;;;;-2.01;67.57;103198.69;1698016;84;25757;-61
2022/02/13 07:02:05;;;;;;;58.65;13.53;;;;;;;-1.95;67.60;103196.52;1688015;84;26547;-60
2022/02/13 07:04:32;;;;;;;20.62;11.88;;;;;;;-1.96;67.76;103198.70;1684785;85;25816;-62
2022/02/13 07:07:00;;;;;;;26.00;14.03;;;;;;;-2.00;67.72;103190.36;1684987;84;25950;-61
2022/02/13 07:09:28;;;;;;;24.15;12.82;;;;;;;-1.93;68.04;103194.77;1684536;85;27528;-61
2022/02/13 07:11:58;;;;;;;33.15;13.60;;;;;;;-1.86;68.08;103191.27;1684568;85;25739;-61
2022/02/13 07:14:25;;;;;;;50.03;19.42;;;;;;;-1.83;68.26;103177.19;1697008;84;25737;-61
2022/02/13 07:16:51;;;;;;;29.23;15.93;;;;;;;-1.83;68.22;103176.77;1698157;84;25799;-61
2022/02/13 07:19:18;;;;;;;35.60;15.35;;;;;;;-1.77;68.10;103168.86;1698209;83;26355;-61
2022/02/13 07:21:45;;;;;;;22.48;14.10;;;;;;;-1.70;68.25;103167.11;1695333;84;27488;-61
2022/02/13 07:24:14;;;;;;;31.23;14.35;;;;;;;-1.63;68.44;103162.73;1691582;84;25911;-61
2022/02/13 07:26:40;;;;;;;30.25;15.50;;;;;;;-1.57;68.41;103161.41;1684849;84;25788;-61
2022/02/13 07:29:09;;;;;;;30.88;15.38;;;;;;;-1.49;68.78;103164.06;1684932;84;25800;-61
2022/02/13 07:31:37;;;;;;;32.17;14.47;;;;;;;-1.39;68.74;103157.02;1690321;84;25812;-61
2022/02/13 07:34:06;;;;;;;30.02;15.55;;;;;;;-1.32;68.61;103162.30;1698349;84;28133;-61
2022/02/13 07:36:35;;;;;;;30.57;16.12;;;;;;;-1.20;68.59;103157.88;1697928;84;25868;-61
2022/02/13 07:39:03;;;;;;;22.95;13.13;;;;;;;-1.12;68.62;103151.72;1694513;84;25824;-60
2022/02/13 07:41:30;;;;;;;24.18;13.68;;;;;;;-1.03;68.78;103153.91;1689544;84;25823;-61
2022/02/13 07:44:00;;;;;;;23.38;12.93;;;;;;;-0.96;68.49;103152.58;1689391;84;25845;-61
2022/02/13 07:46:26;;;;;;;25.77;13.90;;;;;;;-0.86;68.59;103154.75;1682299;83;27554;-61
2022/02/13 07:48:53;;;;;;;23.38;12.68;;;;;;;-0.76;68.75;103146.34;1692316;84;25639;-61
2022/02/13 07:51:21;;;;;;;30.30;14.98;;;;;;;-0.64;68.71;103145.00;1697218;84;25852;-61
2022/02/13 07:53:48;;;;;;;23.50;14.13;;;;;;;-0.51;69.04;103148.93;1695936;84;26428;-61
2022/02/13 07:56:14;;;;;;;24.87;13.70;;;;;;;-0.35;69.16;103141.79;1693937;84;25780;-61
2022/02/13 07:58:41;;;;;;;29.50;15.53;;;;;;;-0.21;69.20;103133.79;1694165;84;27450;-61
2022/02/13 08:01:08;;;;;;;33.85;13.50;;;;;;;-0.05;69.05;103135.48;1697538;84;25769;-61
2022/02/13 08:03:35;;;;;;;41.20;13.15;;;;;;;0.10;69.04;103131.84;1698213;84;25721;-61
2022/02/13 08:06:05;;;;;;;30.88;12.82;;;;;;;0.24;68.92;103129.09;1693642;83;25775;-61
2022/02/13 08:08:36;;;;;;;34.18;13.62;;;;;;;0.35;68.85;103128.14;1696378;84;25978;-62
2022/02/13 08:11:00;;;;;;;22.93;12.75;;;;;;;0.52;68.95;103124.91;1698348;84;28336;-62
2022/02/13 08:13:27;;;;;;;31.00;14.73;;;;;;;0.70;68.87;103122.98;1698727;84;25785;-61
2022/02/13 08:15:54;;;;;;;21.07;12.68;;;;;;;0.84;68.86;103125.08;1687674;84;25767;-61
2022/02/13 08:18:20;;;;;;;33.88;22.15;;;;;;;1.02;68.65;103111.20;1685549;85;25664;-61
2022/02/13 08:20:47;;;;;;;31.55;12.35;;;;;;;1.12;68.70;103106.20;1685209;85;25786;-63
2022/02/13 08:23:14;;;;;;;21.55;11.70;;;;;;;1.31;68.57;103110.87;1687796;84;27472;-61
2022/02/13 08:25:42;;;;;;;20.85;11.12;;;;;;;1.48;68.28;103109.78;1676626;83;25830;-62
2022/02/13 08:28:11;;;;;;;36.63;11.80;;;;;;;1.62;67.96;103100.31;1681885;83;25805;-62
2022/02/13 08:30:38;;;;;;;28.90;12.68;;;;;;;1.76;67.78;103090.38;1684798;85;25877;-62
2022/02/13 08:33:05;;;;;;;22.40;10.20;;;;;;;1.92;67.65;103089.70;1693286;84;25460;-62
2022/02/13 08:35:32;;;;;;;21.65;10.48;;;;;;;2.10;67.61;103084.58;1690693;84;27477;-62
2022/02/13 08:38:00;;;;;;;19.40;10.10;;;;;;;2.30;67.09;103084.69;1690494;84;25729;-62
2022/02/13 08:40:28;;;;;;;21.30;9.70;;;;;;;2.49;66.44;103088.79;1690808;84;25537;-61
2022/02/13 08:42:57;;;;;;;28.83;9.93;;;;;;;2.68;65.60;103076.50;1691104;83;25840;-62
2022/02/13 08:45:32;;;;;;;17.85;9.70;;;;;;;2.86;65.94;103073.97;1696668;83;26148;-61
2022/02/13 08:48:00;;;;;;;18.07;8.48;;;;;;;3.12;65.36;103075.23;1697464;84;28230;-62
2022/02/13 08:50:27;;;;;;;24.37;9.65;;;;;;;3.30;63.85;103077.96;1685157;83;25739;-61
2022/02/13 08:52:54;;;;;;;20.10;8.93;;;;;;;3.54;63.27;103073.91;1686400;84;25498;-62
2022/02/13 08:55:22;;;;;;;20.25;9.48;;;;;;;3.77;62.89;103067.17;1687698;84;26465;-61
2022/02/13 08:57:49;;;;;;;17.20;7.80;;;;;;;4.01;61.64;103068.39;1688765;83;25782;-62
2022/02/13 09:00:18;;;;;;;18.92;8.88;;;;;;;4.28;59.84;103065.09;1688935;84;28259;-63
2022/02/13 09:02:46;;;;;;;17.80;8.58;;;;;;;4.49;59.64;103068.53;1695790;83;25770;-62
2022/02/13 09:05:14;;;;;;;21.55;9.20;;;;;;;4.75;59.27;103064.28;1690529;84;25828;-62
2022/02/13 09:07:42;;;;;;;13.22;8.45;;;;;;;4.82;58.88;103057.00;1684878;85;25805;-62
2022/02/13 09:10:13;;;;;;;20.35;8.33;;;;;;;5.00;58.28;103055.16;1690326;84;25802;-62
2022/02/13 09:12:43;;;;;;;48.73;9.75;;;;;;;5.12;58.13;103059.73;1689555;83;28324;-62
2022/02/13 09:15:10;;;;;;;24.15;8.60;;;;;;;5.13;57.66;103057.01;1691488;83;25763;-62
2022/02/13 09:17:37;;;;;;;10.18;5.00;;;;;;;5.54;57.18;103044.68;1698509;84;25809;-62
2022/02/13 09:20:06;;;;;;;24.23;6.60;;;;;;;6.03;50.45;103042.75;1687409;84;25823;-62
2022/02/13 09:22:34;;;;;;;14.30;5.28;;;;;;;6.83;51.84;103036.41;1685155;84;25471;-62
2022/02/13 09:25:01;;;;;;;12.47;5.50;;;;;;;7.89;47.72;103026.55;1692738;83;27469;-61
2022/02/13 09:27:27;;;;;;;8.83;4.30;;;;;;;8.68;46.61;103028.13;1695385;83;25816;-62
2022/02/13 09:29:54;;;;;;;11.83;4.87;;;;;;;9.35;42.92;103033.16;1696423;84;25641;-62
2022/02/13 09:32:23;;;;;;;15.60;5.00;;;;;;;9.91;41.40;103027.80;1696138;84;25833;-62
2022/02/13 09:34:50;;;;;;;10.53;4.75;;;;;;;10.40;40.61;103014.56;1693844;84;25698;-62
2022/02/13 09:37:17;;;;;;;11.85;4.83;;;;;;;10.82;38.25;103026.32;1686758;84;27449;-63
2022/02/13 09:39:44;;;;;;;13.70;5.28;;;;;;;11.12;39.59;103017.05;1684583;83;26088;-62
2022/02/13 09:42:12;;;;;;;10.10;5.15;;;;;;;11.58;38.41;103018.97;1685045;84;25709;-62
2022/02/13 09:44:38;;;;;;;13.25;4.95;;;;;;;12.05;38.76;103006.44;1684931;83;25786;-62
2022/02/13 09:47:07;;;;;;;8.80;4.42;;;;;;;12.50;37.57;103003.27;1684979;83;25457;-63
2022/02/13 09:49:34;;;;;;;8.05;4.42;;;;;;;12.91;33.74;102997.58;1685037;85;27470;-62
2022/02/13 09:52:01;;;;;;;17.30;4.92;;;;;;;13.03;34.29;102995.07;1685062;85;25485;-62
2022/02/13 09:54:28;;;;;;;11.68;4.00;;;;;;;13.28;33.25;102979.00;1684638;83;25678;-62
2022/02/13 09:57:59;;;;;;;14.87;4.40;;;;;;;13.51;33.88;102984.79;1684529;85;27907;-62
2022/02/13 09:59:24;;;;;;;17.02;4.17;;;;;;;13.77;32.00;102983.03;1680722;85;25669;-63
2022/02/13 10:01:51;;;;;;;10.63;4.22;;;;;;;13.86;33.27;102968.04;1684725;84;27442;-62
2022/02/13 10:04:22;;;;;;;7.95;3.50;;;;;;;14.15;31.78;102957.53;1684400;83;25994;-62
2022/02/13 10:06:48;;;;;;;7.53;4.03;;;;;;;14.40;30.86;102949.42;1661839;85;25741;-62
2022/02/13 10:09:14;;;;;;;12.95;4.22;;;;;;;14.64;30.20;102950.50;1684795;85;26283;-63
2022/02/13 10:11:43;;;;;;;15.35;4.58;;;;;;;14.51;31.26;102939.21;1684857;83;25804;-63
2022/02/13 10:14:15;;;;;;;12.47;4.47;;;;;;;14.82;28.92;102952.43;1684302;85;27520;-62
2022/02/13 10:16:49;;;;;;;11.53;3.98;;;;;;;14.87;30.17;102939.40;1684319;84;25783;-62
2022/02/13 10:19:30;;;;;;;7.22;4.12;;;;;;;15.22;29.84;102932.38;1684297;83;25820;-63
2022/02/13 10:21:56;;;;;;;6.55;3.75;;;;;;;15.47;31.66;102928.20;1683753;85;25881;-62
2022/02/13 10:24:33;;;;;;;5.53;3.62;;;;;;;16.04;27.57;102927.57;1685016;83;25793;-63
2022/02/13 10:27:11;;;;;;;5.35;3.50;;;;;;;16.11;28.24;102912.52;1684947;85;27457;-63
2022/02/13 10:29:44;;;;;;;10.00;3.67;;;;;;;16.24;26.67;102926.00;1685139;83;25754;-63
2022/02/13 10:32:30;;;;;;;8.85;4.35;;;;;;;16.15;27.83;102920.81;1684684;83;25736;-63
2022/02/13 10:35:08;;;;;;;6.15;3.05;;;;;;;16.33;26.48;102906.77;1684973;85;25804;-63
2022/02/13 10:37:55;;;;;;;11.15;4.05;;;;;;;16.38;26.68;102907.25;1685041;85;25509;-63
2022/02/13 10:40:25;;;;;;;12.33;4.00;;;;;;;16.51;25.98;102898.98;1669253;83;27536;-63
2022/02/13 10:43:09;;;;;;;8.03;3.80;;;;;;;16.54;25.70;102894.67;1684578;83;25975;-63
2022/02/13 10:45:41;;;;;;;;;;;;;;;16.45;26.27;102896.27;1702795;83;25504;-63
2022/02/13 10:48:11;;;;;;;7.50;4.12;;;;;;;16.56;26.17;102888.63;1721542;83;25793;-62
2022/02/13 10:50:40;;;;;;;6.67;3.65;;;;;;;16.88;25.97;102881.05;1722195;83;25789;-63
2022/02/13 10:53:10;;;;;;;13.10;4.05;;;;;;;16.95;25.69;102876.86;1708890;83;27473;-63
2022/02/13 10:55:39;;;;;;;9.93;3.52;;;;;;;17.11;26.54;102871.02;1684512;84;25750;-63
2022/02/13 10:58:07;;;;;;;13.30;3.35;;;;;;;17.54;25.96;102866.53;1684528;85;25788;-63
2022/02/13 11:00:37;;;;;;;11.83;3.67;;;;;;;17.85;25.37;102862.52;1686362;84;26440;-63
2022/02/13 11:03:05;;;;;;;7.90;3.12;;;;;;;18.10;24.69;102855.83;1690255;84;25781;-63
2022/02/13 11:05:33;;;;;;;9.40;3.30;;;;;;;18.23;25.57;102866.50;1698656;83;27465;-63
2022/02/13 11:08:08;;;;;;;9.18;3.00;;;;;;;18.56;24.01;102855.45;1704886;84;25981;-63
2022/02/13 11:10:47;;;;;;;7.67;3.00;;;;;;;18.67;23.40;102843.56;1687110;84;25753;-63
2022/02/13 11:13:14;;;;;;;7.22;3.40;;;;;;;18.54;23.90;102843.34;1690600;83;25788;-63
2022/02/13 11:15:45;;;;;;;8.15;2.70;;;;;;;18.90;24.36;102839.63;1690848;84;25911;-63
2022/02/13 11:18:25;;;;;;;5.70;3.10;;;;;;;19.02;22.48;102839.02;1691507;84;28258;-63
2022/02/13 11:20:55;;;;;;;21.65;7.47;;;;;;;19.02;22.68;102831.33;1705725;84;25676;-63